createdAt,value
2018-09-13T17:40:37.862Z,98388.25
2018-09-13T17:43:09.361Z,98385.73
2018-09-13T17:45:41.257Z,98379.19
2018-09-13T17:48:13.658Z,98380.08
2018-09-13T17:50:45.498Z,98383.75
2018-09-13T17:53:18.350Z,98377.45
2018-09-13T17:55:50.471Z,98382.12
2018-09-13T17:58:22.266Z,98389.25
2018-09-13T18:00:54.126Z,98386.56
2018-09-13T18:03:25.534Z,98386.18
2018-09-13T18:05:57.379Z,98383.30
2018-09-13T18:08:28.819Z,98393.45
2018-09-13T18:11:00.924Z,98388.11
2018-09-13T18:13:33.011Z,98384.64
2018-09-13T18:16:05.483Z,98383.91
2018-09-13T18:18:37.637Z,98386.69
2018-09-13T18:21:09.126Z,98393.17
2018-09-13T18:23:41.126Z,98386.23
2018-09-13T18:26:13.242Z,98392.67
2018-09-13T18:28:45.624Z,98387.17
2018-09-13T18:31:17.791Z,98389.59
2018-09-13T18:33:50.851Z,98391.02
2018-09-13T18:36:23.012Z,98393.56
2018-09-13T18:38:54.847Z,98395.06
2018-09-13T18:41:28.773Z,98393.19
2018-09-13T18:43:59.241Z,98397.64
2018-09-13T18:46:31.069Z,98395.52
2018-09-13T18:49:03.016Z,98399.14
2018-09-13T18:51:34.936Z,98395.36
2018-09-13T18:54:07.270Z,98392.39
2018-09-13T18:56:39.094Z,98400.84
2018-09-13T18:59:10.538Z,98400.03
2018-09-13T19:01:42.094Z,98399.78
2018-09-13T19:04:14.060Z,98406.09
2018-09-13T19:06:46.268Z,98412.09
2018-09-13T19:09:18.489Z,98411.56
2018-09-13T19:11:51.155Z,98415.39
2018-09-13T19:14:23.397Z,98412.68
2018-09-13T19:16:56.269Z,98416.19
2018-09-13T19:19:28.049Z,98420.55
2018-09-13T19:22:00.188Z,98427.92
2018-09-13T19:24:32.717Z,98440.98
2018-09-13T19:27:04.390Z,98434.77
2018-09-13T19:29:36.973Z,98440.20
2018-09-13T19:32:09.048Z,98444.03
2018-09-13T19:34:40.916Z,98444.88
2018-09-13T19:37:13.276Z,98452.77
2018-09-13T19:39:45.170Z,98456.61
2018-09-13T19:42:17.405Z,98453.89
2018-09-13T19:44:49.491Z,98454.47
2018-09-13T19:47:22.389Z,98452.83
2018-09-13T19:51:57.583Z,98454.37
2018-09-13T19:54:29.408Z,98455.49
2018-09-13T19:57:02.230Z,98447.72
2018-09-13T19:59:34.110Z,98444.53
2018-09-13T20:02:05.701Z,98443.21
2018-09-13T20:04:37.284Z,98438.64
2018-09-13T20:07:11.292Z,98442.72
2018-09-13T20:09:40.937Z,98442.97
2018-09-13T20:12:14.081Z,98448.94
2018-09-13T20:14:46.291Z,98453.02
2018-09-13T20:17:18.085Z,98452.19
2018-09-13T20:19:50.358Z,98453.02
2018-09-13T20:22:22.548Z,98455.79
2018-09-13T20:24:57.988Z,98462.38
2018-09-13T20:27:35.617Z,98465.39
2018-09-13T20:30:08.533Z,98471.13
